Auburn, NY (13021)

11:19 AM EST on February 06, 2016 (GMT -0500)
Pinfeather Place Fleming, NY | | Change Station
CLOSE
Current Station
Personal Weather Station
Location: Auburn, NY
Elevation: 741 ft
Nearby Weather Stations

Elev 741 ft 42.87 °N, 76.54 °W | Updated 9 seconds ago

Overcast
Overcast
36.7 °F
Feels Like 33 °F
N
5.1
Wind Variable Wind from WSW
Gusts 7.4 mph

Today
High -- | Low -- °F
--% Chance of Precip.
Yesterday
High -- | Low -- °F
Precip. -- in
Pressure 30.25 in
Visibility 10.0 miles
Clouds Few 5000 ft
Scattered Clouds 6000 ft
Overcast 8000 ft
Windchill 33 °F
Dew Point 17 °F
Humidity 45%
Rainfall 0.00 in
Snow Depth Not available.
7:15 AM 5:25 PM
Waning Crescent, 5% visible
METAR KSYR 061454Z 21013G17KT 10SM FEW050 SCT060 OVC080 02/M07 A3024 RMK AO2 SLP243 T00171072 58005 $
Pressure 30.25 in
Visibility 10.0 miles
Clouds Few 5000 ft
Scattered Clouds 6000 ft
Overcast 8000 ft
Windchill 33 °F
Dew Point 17 °F
Humidity 45%
Rainfall 0.00 in
Snow Depth Not available.
7:15 AM 5:25 PM
Waning Crescent, 5% visible
METAR KSYR 061454Z 21013G17KT 10SM FEW050 SCT060 OVC080 02/M07 A3024 RMK AO2 SLP243 T00171072 58005 $

10-Day Weather Forecast

Almanac

Astronomy

Feb. 06, 2016 Rise Set
Actual Time
Civil Twilight
Nautical Twilight
Astronomical Twilight
Moon
Length of Visible Light
Length of Day
Tomorrow will be .
, % of the Moon is Illuminated

Today's Extremes

State Highs State Lows

Community

WunderPhotos

Upload Photos

1,891,004 photos uploaded!

WunderBlog® & News

Nearby

Air Quality

  Air Quality AQ Index Pollutant
Not available.

Snow Depth

Station Depth Elevation

Earthquake Activity

City Distance Mag. Time & Date
Minimum magnitude displayed is 2.5.

Coastal Water Temperatures

Place Temperature

Stations

Nearby Weather Stations

Station Location Temp. Windchill Dew Point Humidity Wind Precip. Elev Updated Type
                   

Watches & Warnings

There are currently no watches in effect.